sensor_id;sensor_type;location;lat;lon;timestamp;P1;durP1;ratioP1;P2;durP2;ratioP2
16407;SDS011;8313;49.894;8.084;2022-12-11T00:00:19;13.77;;;8.20;;
16407;SDS011;8313;49.894;8.084;2022-12-11T00:02:45;15.97;;;8.40;;
16407;SDS011;8313;49.894;8.084;2022-12-11T00:05:10;20.70;;;9.20;;
16407;SDS011;8313;49.894;8.084;2022-12-11T00:07:36;15.27;;;8.80;;
16407;SDS011;8313;49.894;8.084;2022-12-11T00:10:02;13.90;;;8.50;;
16407;SDS011;8313;49.894;8.084;2022-12-11T00:12:28;13.13;;;8.30;;
16407;SDS011;8313;49.894;8.084;2022-12-11T00:14:55;15.37;;;9.17;;
16407;SDS011;8313;49.894;8.084;2022-12-11T00:17:20;18.00;;;8.90;;
16407;SDS011;8313;49.894;8.084;2022-12-11T00:19:46;15.03;;;9.07;;
16407;SDS011;8313;49.894;8.084;2022-12-11T00:22:12;20.10;;;10.00;;
16407;SDS011;8313;49.894;8.084;2022-12-11T00:24:37;20.27;;;11.17;;
16407;SDS011;8313;49.894;8.084;2022-12-11T00:27:03;20.13;;;11.00;;
16407;SDS011;8313;49.894;8.084;2022-12-11T00:29:29;23.20;;;12.10;;
16407;SDS011;8313;49.894;8.084;2022-12-11T00:31:54;22.03;;;12.07;;
16407;SDS011;8313;49.894;8.084;2022-12-11T00:34:20;23.40;;;10.80;;
16407;SDS011;8313;49.894;8.084;2022-12-11T00:36:45;23.77;;;11.30;;
16407;SDS011;8313;49.894;8.084;2022-12-11T00:39:12;21.73;;;10.90;;
16407;SDS011;8313;49.894;8.084;2022-12-11T00:41:37;21.67;;;10.57;;
16407;SDS011;8313;49.894;8.084;2022-12-11T00:44:03;23.13;;;11.40;;
16407;SDS011;8313;49.894;8.084;2022-12-11T00:46:29;23.03;;;11.60;;
16407;SDS011;8313;49.894;8.084;2022-12-11T00:48:55;21.13;;;10.27;;
16407;SDS011;8313;49.894;8.084;2022-12-11T00:51:20;22.77;;;10.50;;
16407;SDS011;8313;49.894;8.084;2022-12-11T00:53:46;18.20;;;9.60;;
16407;SDS011;8313;49.894;8.084;2022-12-11T00:56:16;22.30;;;10.37;;
16407;SDS011;8313;49.894;8.084;2022-12-11T00:58:44;22.20;;;11.13;;
16407;SDS011;8313;49.894;8.084;2022-12-11T01:01:12;20.43;;;10.33;;
16407;SDS011;8313;49.894;8.084;2022-12-11T01:03:40;18.70;;;9.97;;
16407;SDS011;8313;49.894;8.084;2022-12-11T01:06:06;25.17;;;10.13;;
16407;SDS011;8313;49.894;8.084;2022-12-11T01:08:32;18.13;;;10.47;;
16407;SDS011;8313;49.894;8.084;2022-12-11T01:11:04;18.37;;;10.00;;
16407;SDS011;8313;49.894;8.084;2022-12-11T01:13:33;14.77;;;8.40;;
16407;SDS011;8313;49.894;8.084;2022-12-11T01:16:04;18.30;;;9.57;;
16407;SDS011;8313;49.894;8.084;2022-12-11T01:18:34;17.87;;;9.53;;
16407;SDS011;8313;49.894;8.084;2022-12-11T01:21:04;13.20;;;8.67;;
16407;SDS011;8313;49.894;8.084;2022-12-11T01:23:33;18.63;;;9.73;;
16407;SDS011;8313;49.894;8.084;2022-12-11T01:26:07;16.20;;;9.37;;
16407;SDS011;8313;49.894;8.084;2022-12-11T01:28:35;21.67;;;9.77;;
16407;SDS011;8313;49.894;8.084;2022-12-11T01:31:01;15.70;;;8.93;;
16407;SDS011;8313;49.894;8.084;2022-12-11T01:33:27;14.87;;;8.50;;
16407;SDS011;8313;49.894;8.084;2022-12-11T01:35:53;20.47;;;9.90;;
16407;SDS011;8313;49.894;8.084;2022-12-11T01:38:18;21.40;;;10.47;;
16407;SDS011;8313;49.894;8.084;2022-12-11T01:40:45;20.23;;;9.53;;
16407;SDS011;8313;49.894;8.084;2022-12-11T01:43:12;15.53;;;8.93;;
16407;SDS011;8313;49.894;8.084;2022-12-11T01:45:38;12.93;;;7.70;;
16407;SDS011;8313;49.894;8.084;2022-12-11T01:48:13;17.17;;;8.17;;
16407;SDS011;8313;49.894;8.084;2022-12-11T01:51:02;11.50;;;8.13;;
16407;SDS011;8313;49.894;8.084;2022-12-11T01:53:33;16.33;;;8.60;;
16407;SDS011;8313;49.894;8.084;2022-12-11T01:56:02;21.30;;;11.33;;
16407;SDS011;8313;49.894;8.084;2022-12-11T01:58:31;18.33;;;9.73;;
16407;SDS011;8313;49.894;8.084;2022-12-11T02:01:02;14.10;;;8.00;;
16407;SDS011;8313;49.894;8.084;2022-12-11T02:03:28;16.70;;;8.77;;
16407;SDS011;8313;49.894;8.084;2022-12-11T02:05:57;18.83;;;10.57;;
16407;SDS011;8313;49.894;8.084;2022-12-11T02:08:24;19.60;;;9.63;;
16407;SDS011;8313;49.894;8.084;2022-12-11T02:11:02;18.10;;;9.07;;
16407;SDS011;8313;49.894;8.084;2022-12-11T02:13:43;9.20;;;6.77;;
16407;SDS011;8313;49.894;8.084;2022-12-11T02:16:22;15.27;;;9.37;;
16407;SDS011;8313;49.894;8.084;2022-12-11T02:19:02;15.57;;;9.07;;
16407;SDS011;8313;49.894;8.084;2022-12-11T02:21:42;18.40;;;10.00;;
16407;SDS011;8313;49.894;8.084;2022-12-11T02:26:53;17.70;;;9.87;;
16407;SDS011;8313;49.894;8.084;2022-12-11T02:29:22;18.73;;;7.60;;
16407;SDS011;8313;49.894;8.084;2022-12-11T02:31:59;18.30;;;9.17;;
16407;SDS011;8313;49.894;8.084;2022-12-11T02:34:36;17.63;;;8.53;;
16407;SDS011;8313;49.894;8.084;2022-12-11T02:37:10;18.53;;;9.57;;
16407;SDS011;8313;49.894;8.084;2022-12-11T02:39:39;12.60;;;8.07;;
16407;SDS011;8313;49.894;8.084;2022-12-11T02:42:07;18.17;;;9.73;;
16407;SDS011;8313;49.894;8.084;2022-12-11T02:44:35;20.00;;;10.13;;
16407;SDS011;8313;49.894;8.084;2022-12-11T02:47:02;17.57;;;10.63;;
16407;SDS011;8313;49.894;8.084;2022-12-11T02:49:35;26.30;;;10.07;;
16407;SDS011;8313;49.894;8.084;2022-12-11T02:52:02;18.37;;;9.53;;
16407;SDS011;8313;49.894;8.084;2022-12-11T02:54:31;20.63;;;9.83;;
16407;SDS011;8313;49.894;8.084;2022-12-11T02:57:07;20.53;;;8.67;;
16407;SDS011;8313;49.894;8.084;2022-12-11T02:59:38;14.60;;;7.77;;
16407;SDS011;8313;49.894;8.084;2022-12-11T03:02:06;16.50;;;8.97;;
16407;SDS011;8313;49.894;8.084;2022-12-11T03:04:33;17.07;;;9.20;;
16407;SDS011;8313;49.894;8.084;2022-12-11T03:07:07;15.00;;;8.90;;
16407;SDS011;8313;49.894;8.084;2022-12-11T03:09:54;21.63;;;10.43;;
16407;SDS011;8313;49.894;8.084;2022-12-11T03:12:26;14.20;;;8.57;;
16407;SDS011;8313;49.894;8.084;2022-12-11T03:14:53;16.50;;;8.77;;
16407;SDS011;8313;49.894;8.084;2022-12-11T03:17:21;13.30;;;8.70;;
16407;SDS011;8313;49.894;8.084;2022-12-11T03:23:00;14.53;;;8.33;;
16407;SDS011;8313;49.894;8.084;2022-12-11T03:25:56;15.47;;;8.43;;
16407;SDS011;8313;49.894;8.084;2022-12-11T03:31:24;19.70;;;9.47;;
16407;SDS011;8313;49.894;8.084;2022-12-11T03:33:55;13.77;;;8.37;;
16407;SDS011;8313;49.894;8.084;2022-12-11T03:36:26;15.73;;;9.30;;
16407;SDS011;8313;49.894;8.084;2022-12-11T03:38:57;15.60;;;8.70;;
16407;SDS011;8313;49.894;8.084;2022-12-11T03:41:31;14.53;;;9.00;;
16407;SDS011;8313;49.894;8.084;2022-12-11T03:43:58;17.93;;;8.77;;
16407;SDS011;8313;49.894;8.084;2022-12-11T03:46:26;19.20;;;9.37;;
16407;SDS011;8313;49.894;8.084;2022-12-11T03:48:57;19.13;;;8.00;;
16407;SDS011;8313;49.894;8.084;2022-12-11T03:51:45;20.30;;;10.17;;
16407;SDS011;8313;49.894;8.084;2022-12-11T03:54:14;17.50;;;8.67;;
16407;SDS011;8313;49.894;8.084;2022-12-11T03:56:41;25.83;;;11.07;;
16407;SDS011;8313;49.894;8.084;2022-12-11T03:59:09;19.10;;;10.27;;
16407;SDS011;8313;49.894;8.084;2022-12-11T04:01:35;15.50;;;9.13;;
16407;SDS011;8313;49.894;8.084;2022-12-11T04:04:01;20.23;;;9.40;;
16407;SDS011;8313;49.894;8.084;2022-12-11T04:06:26;14.10;;;8.57;;
16407;SDS011;8313;49.894;8.084;2022-12-11T04:08:52;23.03;;;9.20;;
16407;SDS011;8313;49.894;8.084;2022-12-11T04:11:18;16.77;;;9.23;;
16407;SDS011;8313;49.894;8.084;2022-12-11T04:14:06;14.70;;;9.17;;
16407;SDS011;8313;49.894;8.084;2022-12-11T04:16:54;17.30;;;8.33;;
16407;SDS011;8313;49.894;8.084;2022-12-11T04:19:22;25.90;;;9.60;;
16407;SDS011;8313;49.894;8.084;2022-12-11T04:22:06;22.30;;;9.47;;
16407;SDS011;8313;49.894;8.084;2022-12-11T04:24:55;15.80;;;8.40;;
16407;SDS011;8313;49.894;8.084;2022-12-11T04:27:21;17.67;;;8.80;;
16407;SDS011;8313;49.894;8.084;2022-12-11T04:30:07;16.80;;;8.50;;
16407;SDS011;8313;49.894;8.084;2022-12-11T04:32:35;17.80;;;8.43;;
16407;SDS011;8313;49.894;8.084;2022-12-11T04:35:00;15.00;;;7.10;;
16407;SDS011;8313;49.894;8.084;2022-12-11T04:37:26;16.67;;;8.60;;
16407;SDS011;8313;49.894;8.084;2022-12-11T04:39:52;20.00;;;8.53;;
16407;SDS011;8313;49.894;8.084;2022-12-11T04:42:18;21.87;;;9.47;;
16407;SDS011;8313;49.894;8.084;2022-12-11T04:44:43;16.60;;;8.17;;
16407;SDS011;8313;49.894;8.084;2022-12-11T04:47:10;14.77;;;9.93;;
16407;SDS011;8313;49.894;8.084;2022-12-11T04:49:36;17.97;;;7.57;;
16407;SDS011;8313;49.894;8.084;2022-12-11T04:52:02;16.50;;;8.67;;
16407;SDS011;8313;49.894;8.084;2022-12-11T04:54:28;18.20;;;7.90;;
16407;SDS011;8313;49.894;8.084;2022-12-11T04:56:54;15.37;;;8.80;;
16407;SDS011;8313;49.894;8.084;2022-12-11T04:59:20;20.70;;;9.50;;
16407;SDS011;8313;49.894;8.084;2022-12-11T05:01:46;17.17;;;8.10;;
16407;SDS011;8313;49.894;8.084;2022-12-11T05:04:12;16.57;;;9.10;;
16407;SDS011;8313;49.894;8.084;2022-12-11T05:06:38;15.13;;;9.10;;
16407;SDS011;8313;49.894;8.084;2022-12-11T05:09:03;15.33;;;8.27;;
16407;SDS011;8313;49.894;8.084;2022-12-11T05:11:29;16.50;;;9.10;;
16407;SDS011;8313;49.894;8.084;2022-12-11T05:13:55;16.40;;;8.40;;
16407;SDS011;8313;49.894;8.084;2022-12-11T05:16:20;16.93;;;8.10;;
16407;SDS011;8313;49.894;8.084;2022-12-11T05:18:46;19.97;;;9.87;;
16407;SDS011;8313;49.894;8.084;2022-12-11T05:21:12;17.83;;;8.90;;
16407;SDS011;8313;49.894;8.084;2022-12-11T05:23:39;16.43;;;8.60;;
16407;SDS011;8313;49.894;8.084;2022-12-11T05:26:07;18.07;;;7.97;;
16407;SDS011;8313;49.894;8.084;2022-12-11T05:28:38;15.70;;;8.30;;
16407;SDS011;8313;49.894;8.084;2022-12-11T05:31:10;18.30;;;9.43;;
16407;SDS011;8313;49.894;8.084;2022-12-11T05:33:41;14.23;;;8.37;;
16407;SDS011;8313;49.894;8.084;2022-12-11T05:36:07;19.17;;;9.20;;
16407;SDS011;8313;49.894;8.084;2022-12-11T05:38:37;15.10;;;8.23;;
16407;SDS011;8313;49.894;8.084;2022-12-11T05:41:04;14.20;;;8.40;;
16407;SDS011;8313;49.894;8.084;2022-12-11T05:43:31;15.13;;;8.43;;
16407;SDS011;8313;49.894;8.084;2022-12-11T05:46:06;17.00;;;8.50;;
16407;SDS011;8313;49.894;8.084;2022-12-11T05:48:37;11.83;;;8.40;;
16407;SDS011;8313;49.894;8.084;2022-12-11T05:51:03;21.50;;;10.07;;
16407;SDS011;8313;49.894;8.084;2022-12-11T05:53:30;16.50;;;10.00;;
16407;SDS011;8313;49.894;8.084;2022-12-11T05:56:00;31.77;;;10.10;;
16407;SDS011;8313;49.894;8.084;2022-12-11T05:58:27;14.97;;;8.73;;
16407;SDS011;8313;49.894;8.084;2022-12-11T06:00:53;16.57;;;8.37;;
16407;SDS011;8313;49.894;8.084;2022-12-11T06:03:19;18.53;;;11.33;;
16407;SDS011;8313;49.894;8.084;2022-12-11T06:05:44;16.60;;;9.20;;
16407;SDS011;8313;49.894;8.084;2022-12-11T06:08:10;14.90;;;8.43;;
16407;SDS011;8313;49.894;8.084;2022-12-11T06:10:36;17.83;;;9.13;;
16407;SDS011;8313;49.894;8.084;2022-12-11T06:13:02;17.33;;;8.87;;
16407;SDS011;8313;49.894;8.084;2022-12-11T06:15:28;18.03;;;9.23;;
16407;SDS011;8313;49.894;8.084;2022-12-11T06:17:54;18.57;;;8.80;;
16407;SDS011;8313;49.894;8.084;2022-12-11T06:20:19;16.03;;;8.60;;
16407;SDS011;8313;49.894;8.084;2022-12-11T06:22:45;16.90;;;9.10;;
16407;SDS011;8313;49.894;8.084;2022-12-11T06:25:10;16.30;;;7.70;;
16407;SDS011;8313;49.894;8.084;2022-12-11T06:27:36;12.77;;;8.57;;
16407;SDS011;8313;49.894;8.084;2022-12-11T06:30:02;16.50;;;9.23;;
16407;SDS011;8313;49.894;8.084;2022-12-11T06:32:28;22.83;;;8.87;;
16407;SDS011;8313;49.894;8.084;2022-12-11T06:34:53;19.10;;;8.97;;
16407;SDS011;8313;49.894;8.084;2022-12-11T06:37:19;13.10;;;7.50;;
16407;SDS011;8313;49.894;8.084;2022-12-11T06:39:45;18.13;;;8.67;;
16407;SDS011;8313;49.894;8.084;2022-12-11T06:42:10;20.27;;;10.23;;
16407;SDS011;8313;49.894;8.084;2022-12-11T06:44:37;17.30;;;9.40;;
16407;SDS011;8313;49.894;8.084;2022-12-11T06:47:03;17.67;;;9.73;;
16407;SDS011;8313;49.894;8.084;2022-12-11T06:49:29;22.23;;;10.07;;
16407;SDS011;8313;49.894;8.084;2022-12-11T06:51:55;18.97;;;9.80;;
16407;SDS011;8313;49.894;8.084;2022-12-11T06:54:24;23.33;;;11.80;;
16407;SDS011;8313;49.894;8.084;2022-12-11T06:56:53;22.13;;;12.00;;
16407;SDS011;8313;49.894;8.084;2022-12-11T06:59:18;17.43;;;10.40;;
16407;SDS011;8313;49.894;8.084;2022-12-11T07:01:44;18.73;;;10.73;;
16407;SDS011;8313;49.894;8.084;2022-12-11T07:04:10;20.70;;;9.77;;
16407;SDS011;8313;49.894;8.084;2022-12-11T07:06:35;16.80;;;10.00;;
16407;SDS011;8313;49.894;8.084;2022-12-11T07:09:04;17.57;;;9.07;;
16407;SDS011;8313;49.894;8.084;2022-12-11T07:11:30;16.73;;;9.83;;
16407;SDS011;8313;49.894;8.084;2022-12-11T07:13:57;19.77;;;11.03;;
16407;SDS011;8313;49.894;8.084;2022-12-11T07:16:24;22.17;;;9.60;;
16407;SDS011;8313;49.894;8.084;2022-12-11T07:18:50;18.97;;;9.70;;
16407;SDS011;8313;49.894;8.084;2022-12-11T07:21:19;18.57;;;9.53;;
16407;SDS011;8313;49.894;8.084;2022-12-11T07:23:45;19.60;;;10.00;;
16407;SDS011;8313;49.894;8.084;2022-12-11T07:26:13;30.17;;;12.27;;
16407;SDS011;8313;49.894;8.084;2022-12-11T07:28:40;44.53;;;20.70;;
16407;SDS011;8313;49.894;8.084;2022-12-11T07:31:17;37.93;;;18.53;;
16407;SDS011;8313;49.894;8.084;2022-12-11T07:33:44;25.17;;;12.47;;
16407;SDS011;8313;49.894;8.084;2022-12-11T07:36:11;20.73;;;11.20;;
16407;SDS011;8313;49.894;8.084;2022-12-11T07:38:38;22.60;;;11.20;;
16407;SDS011;8313;49.894;8.084;2022-12-11T07:41:06;24.63;;;11.53;;
16407;SDS011;8313;49.894;8.084;2022-12-11T07:43:35;22.07;;;9.27;;
16407;SDS011;8313;49.894;8.084;2022-12-11T07:46:04;29.37;;;13.60;;
16407;SDS011;8313;49.894;8.084;2022-12-11T07:48:33;20.70;;;10.60;;
16407;SDS011;8313;49.894;8.084;2022-12-11T07:51:07;23.13;;;10.57;;
16407;SDS011;8313;49.894;8.084;2022-12-11T07:53:39;23.97;;;11.40;;
16407;SDS011;8313;49.894;8.084;2022-12-11T07:56:05;20.80;;;9.40;;
16407;SDS011;8313;49.894;8.084;2022-12-11T07:58:31;18.93;;;12.07;;
16407;SDS011;8313;49.894;8.084;2022-12-11T08:00:57;16.43;;;9.90;;
16407;SDS011;8313;49.894;8.084;2022-12-11T08:03:23;22.10;;;11.60;;
16407;SDS011;8313;49.894;8.084;2022-12-11T08:05:49;19.73;;;11.10;;
16407;SDS011;8313;49.894;8.084;2022-12-11T08:08:15;24.77;;;12.57;;
16407;SDS011;8313;49.894;8.084;2022-12-11T08:10:42;20.57;;;10.60;;
16407;SDS011;8313;49.894;8.084;2022-12-11T08:13:08;20.80;;;11.70;;
16407;SDS011;8313;49.894;8.084;2022-12-11T08:15:34;22.70;;;11.80;;
16407;SDS011;8313;49.894;8.084;2022-12-11T08:17:59;25.47;;;12.13;;
16407;SDS011;8313;49.894;8.084;2022-12-11T08:20:25;26.17;;;15.40;;
16407;SDS011;8313;49.894;8.084;2022-12-11T08:22:51;29.37;;;15.47;;
16407;SDS011;8313;49.894;8.084;2022-12-11T08:25:17;23.03;;;14.60;;
16407;SDS011;8313;49.894;8.084;2022-12-11T08:27:42;31.13;;;15.70;;
16407;SDS011;8313;49.894;8.084;2022-12-11T08:30:08;30.30;;;14.77;;
16407;SDS011;8313;49.894;8.084;2022-12-11T08:32:34;29.17;;;15.70;;
16407;SDS011;8313;49.894;8.084;2022-12-11T08:35:00;35.77;;;16.07;;
16407;SDS011;8313;49.894;8.084;2022-12-11T08:37:26;42.10;;;17.70;;
16407;SDS011;8313;49.894;8.084;2022-12-11T08:39:53;29.50;;;15.40;;
16407;SDS011;8313;49.894;8.084;2022-12-11T08:42:19;37.53;;;16.77;;
16407;SDS011;8313;49.894;8.084;2022-12-11T08:44:45;43.00;;;19.23;;
16407;SDS011;8313;49.894;8.084;2022-12-11T08:47:11;31.97;;;16.63;;
16407;SDS011;8313;49.894;8.084;2022-12-11T08:49:36;33.67;;;17.57;;
16407;SDS011;8313;49.894;8.084;2022-12-11T08:52:02;31.50;;;15.67;;
16407;SDS011;8313;49.894;8.084;2022-12-11T08:54:29;23.00;;;11.77;;
16407;SDS011;8313;49.894;8.084;2022-12-11T08:56:55;26.20;;;15.27;;
16407;SDS011;8313;49.894;8.084;2022-12-11T08:59:20;28.80;;;15.47;;
16407;SDS011;8313;49.894;8.084;2022-12-11T09:01:46;28.70;;;15.40;;
16407;SDS011;8313;49.894;8.084;2022-12-11T09:04:12;21.90;;;12.93;;
16407;SDS011;8313;49.894;8.084;2022-12-11T09:06:37;22.80;;;10.00;;
16407;SDS011;8313;49.894;8.084;2022-12-11T09:09:03;24.03;;;11.53;;
16407;SDS011;8313;49.894;8.084;2022-12-11T09:11:30;21.57;;;11.07;;
16407;SDS011;8313;49.894;8.084;2022-12-11T09:13:58;19.03;;;9.87;;
16407;SDS011;8313;49.894;8.084;2022-12-11T09:16:25;24.97;;;12.40;;
16407;SDS011;8313;49.894;8.084;2022-12-11T09:18:52;21.00;;;9.90;;
16407;SDS011;8313;49.894;8.084;2022-12-11T09:21:21;17.90;;;10.70;;
16407;SDS011;8313;49.894;8.084;2022-12-11T09:23:48;28.00;;;11.87;;
16407;SDS011;8313;49.894;8.084;2022-12-11T09:26:18;22.53;;;12.40;;
16407;SDS011;8313;49.894;8.084;2022-12-11T09:28:44;19.27;;;11.40;;
16407;SDS011;8313;49.894;8.084;2022-12-11T09:31:10;20.50;;;11.07;;
16407;SDS011;8313;49.894;8.084;2022-12-11T09:33:41;16.03;;;9.87;;
16407;SDS011;8313;49.894;8.084;2022-12-11T09:36:07;22.57;;;11.00;;
16407;SDS011;8313;49.894;8.084;2022-12-11T09:38:34;29.87;;;11.20;;
16407;SDS011;8313;49.894;8.084;2022-12-11T09:41:00;24.47;;;10.77;;
16407;SDS011;8313;49.894;8.084;2022-12-11T09:46:02;20.70;;;10.30;;
16407;SDS011;8313;49.894;8.084;2022-12-11T09:48:31;19.30;;;8.70;;
16407;SDS011;8313;49.894;8.084;2022-12-11T09:50:58;23.70;;;9.30;;
16407;SDS011;8313;49.894;8.084;2022-12-11T09:53:34;23.73;;;11.27;;
16407;SDS011;8313;49.894;8.084;2022-12-11T09:56:19;19.13;;;11.07;;
16407;SDS011;8313;49.894;8.084;2022-12-11T10:01:41;21.37;;;9.23;;
16407;SDS011;8313;49.894;8.084;2022-12-11T10:04:30;22.97;;;12.70;;
16407;SDS011;8313;49.894;8.084;2022-12-11T10:17:38;23.70;;;11.27;;
16407;SDS011;8313;49.894;8.084;2022-12-11T10:20:25;26.43;;;14.30;;
16407;SDS011;8313;49.894;8.084;2022-12-11T10:22:56;22.40;;;12.40;;
16407;SDS011;8313;49.894;8.084;2022-12-11T10:25:26;19.73;;;13.60;;
16407;SDS011;8313;49.894;8.084;2022-12-11T10:27:55;23.97;;;12.40;;
16407;SDS011;8313;49.894;8.084;2022-12-11T10:30:22;17.83;;;11.20;;
16407;SDS011;8313;49.894;8.084;2022-12-11T10:38:05;25.73;;;12.70;;
16407;SDS011;8313;49.894;8.084;2022-12-11T10:40:39;21.03;;;10.77;;
16407;SDS011;8313;49.894;8.084;2022-12-11T10:43:08;18.00;;;10.77;;
16407;SDS011;8313;49.894;8.084;2022-12-11T10:45:34;22.10;;;12.47;;
16407;SDS011;8313;49.894;8.084;2022-12-11T10:48:05;16.73;;;9.97;;
16407;SDS011;8313;49.894;8.084;2022-12-11T10:50:34;23.00;;;12.00;;
16407;SDS011;8313;49.894;8.084;2022-12-11T10:53:01;20.37;;;10.57;;
16407;SDS011;8313;49.894;8.084;2022-12-11T10:55:33;16.27;;;9.13;;
16407;SDS011;8313;49.894;8.084;2022-12-11T10:58:11;21.93;;;9.80;;
16407;SDS011;8313;49.894;8.084;2022-12-11T11:00:43;18.83;;;10.97;;
16407;SDS011;8313;49.894;8.084;2022-12-11T11:03:20;14.60;;;9.47;;
16407;SDS011;8313;49.894;8.084;2022-12-11T11:05:49;16.70;;;9.50;;
16407;SDS011;8313;49.894;8.084;2022-12-11T11:08:50;13.23;;;8.57;;
16407;SDS011;8313;49.894;8.084;2022-12-11T11:14:15;14.80;;;8.77;;
16407;SDS011;8313;49.894;8.084;2022-12-11T11:16:46;17.23;;;9.20;;
16407;SDS011;8313;49.894;8.084;2022-12-11T11:19:16;18.73;;;9.57;;
16407;SDS011;8313;49.894;8.084;2022-12-11T11:21:46;18.63;;;9.07;;
16407;SDS011;8313;49.894;8.084;2022-12-11T11:24:32;17.43;;;10.57;;
16407;SDS011;8313;49.894;8.084;2022-12-11T11:27:02;15.50;;;8.23;;
16407;SDS011;8313;49.894;8.084;2022-12-11T11:29:37;15.80;;;9.07;;
16407;SDS011;8313;49.894;8.084;2022-12-11T11:32:17;21.27;;;10.37;;
16407;SDS011;8313;49.894;8.084;2022-12-11T11:34:46;18.77;;;9.73;;
16407;SDS011;8313;49.894;8.084;2022-12-11T11:37:21;18.30;;;10.37;;
16407;SDS011;8313;49.894;8.084;2022-12-11T11:39:49;19.73;;;10.27;;
16407;SDS011;8313;49.894;8.084;2022-12-11T11:42:22;22.60;;;10.80;;
16407;SDS011;8313;49.894;8.084;2022-12-11T11:45:04;27.77;;;12.00;;
16407;SDS011;8313;49.894;8.084;2022-12-11T11:51:12;24.13;;;9.30;;
16407;SDS011;8313;49.894;8.084;2022-12-11T11:53:39;24.20;;;10.10;;
16407;SDS011;8313;49.894;8.084;2022-12-11T12:01:10;19.93;;;10.00;;
16407;SDS011;8313;49.894;8.084;2022-12-11T12:03:41;21.20;;;11.00;;
16407;SDS011;8313;49.894;8.084;2022-12-11T12:12:04;16.57;;;9.80;;
16407;SDS011;8313;49.894;8.084;2022-12-11T12:17:26;19.60;;;9.07;;
16407;SDS011;8313;49.894;8.084;2022-12-11T12:28:47;21.00;;;12.80;;
16407;SDS011;8313;49.894;8.084;2022-12-11T12:36:41;28.33;;;14.50;;
16407;SDS011;8313;49.894;8.084;2022-12-11T12:47:39;20.80;;;11.43;;
16407;SDS011;8313;49.894;8.084;2022-12-11T12:50:11;15.47;;;10.27;;
16407;SDS011;8313;49.894;8.084;2022-12-11T12:52:40;18.80;;;10.10;;
16407;SDS011;8313;49.894;8.084;2022-12-11T12:57:41;18.10;;;9.70;;
16407;SDS011;8313;49.894;8.084;2022-12-11T13:03:02;22.47;;;10.23;;
16407;SDS011;8313;49.894;8.084;2022-12-11T13:05:57;17.83;;;10.10;;
16407;SDS011;8313;49.894;8.084;2022-12-11T13:08:25;14.37;;;9.83;;
16407;SDS011;8313;49.894;8.084;2022-12-11T13:10:59;24.03;;;12.83;;
16407;SDS011;8313;49.894;8.084;2022-12-11T13:14:03;26.03;;;13.47;;
16407;SDS011;8313;49.894;8.084;2022-12-11T13:16:38;21.93;;;11.20;;
16407;SDS011;8313;49.894;8.084;2022-12-11T13:24:25;23.33;;;12.07;;
16407;SDS011;8313;49.894;8.084;2022-12-11T13:26:52;21.20;;;10.47;;
16407;SDS011;8313;49.894;8.084;2022-12-11T13:29:35;17.67;;;10.50;;
16407;SDS011;8313;49.894;8.084;2022-12-11T13:34:32;20.43;;;10.60;;
16407;SDS011;8313;49.894;8.084;2022-12-11T13:37:30;26.40;;;12.07;;
16407;SDS011;8313;49.894;8.084;2022-12-11T13:39:58;23.57;;;11.73;;
16407;SDS011;8313;49.894;8.084;2022-12-11T13:44:55;21.93;;;11.43;;
16407;SDS011;8313;49.894;8.084;2022-12-11T13:47:21;24.47;;;12.63;;
16407;SDS011;8313;49.894;8.084;2022-12-11T13:49:49;23.50;;;12.50;;
16407;SDS011;8313;49.894;8.084;2022-12-11T13:52:20;31.23;;;13.40;;
16407;SDS011;8313;49.894;8.084;2022-12-11T13:54:48;19.87;;;11.57;;
16407;SDS011;8313;49.894;8.084;2022-12-11T13:57:16;19.27;;;11.73;;
16407;SDS011;8313;49.894;8.084;2022-12-11T13:59:57;29.83;;;13.40;;
16407;SDS011;8313;49.894;8.084;2022-12-11T14:02:27;23.27;;;11.93;;
16407;SDS011;8313;49.894;8.084;2022-12-11T14:04:57;36.03;;;15.60;;
16407;SDS011;8313;49.894;8.084;2022-12-11T14:07:27;31.60;;;17.10;;
16407;SDS011;8313;49.894;8.084;2022-12-11T14:09:59;27.60;;;13.87;;
16407;SDS011;8313;49.894;8.084;2022-12-11T14:12:29;21.60;;;11.77;;
16407;SDS011;8313;49.894;8.084;2022-12-11T14:14:56;26.40;;;13.07;;
16407;SDS011;8313;49.894;8.084;2022-12-11T14:17:27;26.03;;;11.30;;
16407;SDS011;8313;49.894;8.084;2022-12-11T14:19:55;17.47;;;10.13;;
16407;SDS011;8313;49.894;8.084;2022-12-11T14:22:27;23.50;;;12.40;;
16407;SDS011;8313;49.894;8.084;2022-12-11T14:24:55;43.17;;;26.47;;
16407;SDS011;8313;49.894;8.084;2022-12-11T14:27:27;61.33;;;38.50;;
16407;SDS011;8313;49.894;8.084;2022-12-11T14:29:54;47.00;;;29.87;;
16407;SDS011;8313;49.894;8.084;2022-12-11T14:34:58;34.30;;;16.90;;
16407;SDS011;8313;49.894;8.084;2022-12-11T14:37:27;26.87;;;14.73;;
16407;SDS011;8313;49.894;8.084;2022-12-11T14:42:20;30.53;;;14.80;;
16407;SDS011;8313;49.894;8.084;2022-12-11T14:47:18;26.90;;;13.70;;
16407;SDS011;8313;49.894;8.084;2022-12-11T14:50:03;26.40;;;13.37;;
16407;SDS011;8313;49.894;8.084;2022-12-11T14:52:41;29.27;;;12.70;;
16407;SDS011;8313;49.894;8.084;2022-12-11T14:55:15;19.53;;;9.90;;
16407;SDS011;8313;49.894;8.084;2022-12-11T14:57:44;20.90;;;11.57;;
16407;SDS011;8313;49.894;8.084;2022-12-11T15:00:20;19.93;;;10.90;;
16407;SDS011;8313;49.894;8.084;2022-12-11T15:02:57;28.27;;;10.90;;
16407;SDS011;8313;49.894;8.084;2022-12-11T15:05:28;22.83;;;10.03;;
16407;SDS011;8313;49.894;8.084;2022-12-11T15:07:59;18.10;;;10.47;;
16407;SDS011;8313;49.894;8.084;2022-12-11T15:10:29;24.90;;;13.37;;
16407;SDS011;8313;49.894;8.084;2022-12-11T15:13:05;22.47;;;12.23;;
16407;SDS011;8313;49.894;8.084;2022-12-11T15:15:32;25.47;;;12.13;;
16407;SDS011;8313;49.894;8.084;2022-12-11T15:18:11;21.63;;;11.00;;
16407;SDS011;8313;49.894;8.084;2022-12-11T15:20:54;26.23;;;11.10;;
16407;SDS011;8313;49.894;8.084;2022-12-11T15:23:22;23.97;;;11.30;;
16407;SDS011;8313;49.894;8.084;2022-12-11T15:25:52;19.23;;;9.63;;
16407;SDS011;8313;49.894;8.084;2022-12-11T15:28:26;22.53;;;11.60;;
16407;SDS011;8313;49.894;8.084;2022-12-11T15:30:59;27.70;;;10.87;;
16407;SDS011;8313;49.894;8.084;2022-12-11T15:33:46;20.70;;;9.93;;
16407;SDS011;8313;49.894;8.084;2022-12-11T15:38:54;17.77;;;10.33;;
16407;SDS011;8313;49.894;8.084;2022-12-11T15:41:20;26.93;;;11.50;;
16407;SDS011;8313;49.894;8.084;2022-12-11T15:43:48;20.70;;;12.23;;
16407;SDS011;8313;49.894;8.084;2022-12-11T15:46:15;27.10;;;12.00;;
16407;SDS011;8313;49.894;8.084;2022-12-11T15:48:41;24.40;;;14.27;;
16407;SDS011;8313;49.894;8.084;2022-12-11T15:51:07;28.27;;;15.00;;
16407;SDS011;8313;49.894;8.084;2022-12-11T15:53:33;35.00;;;15.60;;
16407;SDS011;8313;49.894;8.084;2022-12-11T15:55:59;30.17;;;14.90;;
16407;SDS011;8313;49.894;8.084;2022-12-11T15:58:25;29.83;;;16.10;;
16407;SDS011;8313;49.894;8.084;2022-12-11T16:00:51;29.50;;;15.00;;
16407;SDS011;8313;49.894;8.084;2022-12-11T16:03:18;27.60;;;14.40;;
16407;SDS011;8313;49.894;8.084;2022-12-11T16:05:45;25.13;;;15.40;;
16407;SDS011;8313;49.894;8.084;2022-12-11T16:08:12;25.80;;;14.63;;
16407;SDS011;8313;49.894;8.084;2022-12-11T16:10:39;27.47;;;14.60;;
16407;SDS011;8313;49.894;8.084;2022-12-11T16:13:06;31.87;;;16.77;;
16407;SDS011;8313;49.894;8.084;2022-12-11T16:15:32;54.83;;;25.93;;
16407;SDS011;8313;49.894;8.084;2022-12-11T16:17:59;52.33;;;23.60;;
16407;SDS011;8313;49.894;8.084;2022-12-11T16:20:26;47.33;;;23.97;;
16407;SDS011;8313;49.894;8.084;2022-12-11T16:22:51;49.77;;;24.10;;
16407;SDS011;8313;49.894;8.084;2022-12-11T16:25:17;34.07;;;21.07;;
16407;SDS011;8313;49.894;8.084;2022-12-11T16:27:42;35.07;;;20.87;;
16407;SDS011;8313;49.894;8.084;2022-12-11T16:30:08;35.93;;;21.23;;
16407;SDS011;8313;49.894;8.084;2022-12-11T16:32:35;39.00;;;19.70;;